Time,TemperatureF,DewpointF,PressureIn,WindDirection,WindDirectionDegrees,WindSpeedMPH,WindSpeedGustMPH,Humidity,HourlyPrecipIn,Conditions,Clouds,dailyrainin,SoftwareType,DateUTC
2013-02-05 00:03:00,36.2,30.0,29.95,ENE,68,0.4,2.0,78,0.00,,,0.00,WUHU216HW,2013-02-05 08:03:00,
2013-02-05 00:08:00,36.2,29.6,29.95,ENE,68,2.0,2.0,77,0.00,,,0.00,WUHU216HW,2013-02-05 08:08:00,
2013-02-05 00:13:00,36.4,29.8,29.95,ENE,68,0.4,2.0,77,0.00,,,0.00,WUHU216HW,2013-02-05 08:13:00,
2013-02-05 00:18:00,36.2,29.6,29.95,NW,315,1.1,3.4,77,0.00,,,0.00,WUHU216HW,2013-02-05 08:18:00,
2013-02-05 00:23:00,35.8,29.6,29.95,East,90,0.0,4.0,78,0.00,,,0.00,WUHU216HW,2013-02-05 08:23:00,
2013-02-05 00:28:00,35.6,29.4,29.94,ENE,68,1.8,4.0,78,0.00,,,0.00,WUHU216HW,2013-02-05 08:28:00,
2013-02-05 00:33:00,35.6,29.4,29.94,East,90,0.0,1.8,78,0.00,,,0.00,WUHU216HW,2013-02-05 08:33:00,
2013-02-05 00:38:00,35.6,29.4,29.94,East,90,1.1,1.8,78,0.00,,,0.00,WUHU216HW,2013-02-05 08:38:00,
2013-02-05 00:43:00,35.6,29.4,29.94,East,90,0.7,1.3,78,0.00,,,0.00,WUHU216HW,2013-02-05 08:43:00,
2013-02-05 00:48:00,35.5,29.5,29.94,SW,225,2.0,2.7,79,0.00,,,0.00,WUHU216HW,2013-02-05 08:48:00,
2013-02-05 00:53:00,34.9,29.3,29.94,East,90,0.0,3.4,80,0.00,,,0.00,WUHU216HW,2013-02-05 08:53:00,
2013-02-05 00:58:00,34.7,29.2,29.94,SSW,203,0.4,3.4,80,0.00,,,0.00,WUHU216HW,2013-02-05 08:58:00,
2013-02-05 01:03:00,34.6,29.3,29.94,South,180,1.8,2.2,81,0.00,,,0.00,WUHU216HW,2013-02-05 09:03:00,
2013-02-05 01:08:00,34.6,29.3,29.93,South,180,0.4,2.2,81,0.00,,,0.00,WUHU216HW,2013-02-05 09:08:00,
2013-02-05 01:13:00,34.4,29.1,29.93,South,180,0.4,1.8,81,0.00,,,0.00,WUHU216HW,2013-02-05 09:13:00,
2013-02-05 01:18:00,34.2,29.2,29.93,SW,225,1.6,2.5,82,0.00,,,0.00,WUHU216HW,2013-02-05 09:18:00,
2013-02-05 01:23:00,34.0,29.4,29.93,South,180,2.0,4.3,83,0.00,,,0.00,WUHU216HW,2013-02-05 09:23:00,
2013-02-05 01:28:00,33.8,28.5,29.94,ENE,68,2.2,4.3,81,0.00,,,0.00,WUHU216HW,2013-02-05 09:28:00,
2013-02-05 01:33:00,33.8,28.8,29.94,West,270,2.2,3.6,82,0.00,,,0.00,WUHU216HW,2013-02-05 09:33:00,
2013-02-05 01:38:00,33.7,28.7,29.94,SSW,203,0.0,3.6,82,0.00,,,0.00,WUHU216HW,2013-02-05 09:38:00,
2013-02-05 01:43:00,33.5,28.8,29.94,East,90,2.9,2.9,83,0.00,,,0.00,WUHU216HW,2013-02-05 09:43:00,
2013-02-05 01:48:00,33.5,28.8,29.94,SW,225,0.7,2.9,83,0.00,,,0.00,WUHU216HW,2013-02-05 09:48:00,
2013-02-05 01:53:00,33.3,28.6,29.94,WNW,293,1.8,2.5,83,0.00,,,0.00,WUHU216HW,2013-02-05 09:53:00,
2013-02-05 01:58:00,33.1,28.4,29.94,East,90,1.1,2.9,83,0.00,,,0.00,WUHU216HW,2013-02-05 09:58:00,
2013-02-05 02:03:00,33.3,28.6,29.94,NW,315,1.3,2.9,83,0.00,,,0.00,WUHU216HW,2013-02-05 10:03:00,
2013-02-05 02:08:00,33.3,28.6,29.93,ENE,68,1.3,2.0,83,0.00,,,0.00,WUHU216HW,2013-02-05 10:08:00,
2013-02-05 02:13:00,33.5,28.5,29.94,ENE,68,0.0,2.0,82,0.00,,,0.00,WUHU216HW,2013-02-05 10:13:00,
2013-02-05 02:18:00,33.5,28.5,29.94,ENE,68,1.1,1.1,82,0.00,,,0.00,WUHU216HW,2013-02-05 10:18:00,
2013-02-05 02:23:00,33.5,28.3,29.93,ENE,68,2.5,2.5,81,0.00,,,0.00,WUHU216HW,2013-02-05 10:23:00,
2013-02-05 02:28:00,34.6,29.0,29.93,ENE,68,0.2,2.5,80,0.00,,,0.00,WUHU216HW,2013-02-05 10:28:00,
2013-02-05 02:33:00,34.6,28.6,29.93,WNW,293,0.0,2.2,79,0.00,,,0.00,WUHU216HW,2013-02-05 10:33:00,
2013-02-05 02:38:00,34.2,28.6,29.93,WNW,293,0.0,2.2,80,0.00,,,0.00,WUHU216HW,2013-02-05 10:38:00,
2013-02-05 02:43:00,34.0,28.4,29.92,WNW,293,1.1,1.8,80,0.00,,,0.00,WUHU216HW,2013-02-05 10:43:00,
2013-02-05 02:48:00,34.0,28.4,29.93,WNW,293,0.0,1.8,80,0.00,,,0.00,WUHU216HW,2013-02-05 10:48:00,
2013-02-05 02:53:00,34.0,28.4,29.92,WNW,293,1.1,1.8,80,0.00,,,0.00,WUHU216HW,2013-02-05 10:53:00,
2013-02-05 02:58:00,33.8,28.3,29.92,ENE,68,0.0,2.5,80,0.00,,,0.00,WUHU216HW,2013-02-05 10:58:00,
2013-02-05 03:03:00,33.8,28.3,29.92,ENE,68,0.0,2.5,80,0.00,,,0.00,WUHU216HW,2013-02-05 11:03:00,
2013-02-05 03:08:00,33.7,28.1,29.92,ENE,68,0.4,2.0,80,0.00,,,0.00,WUHU216HW,2013-02-05 11:08:00,
2013-02-05 03:13:00,33.8,27.9,29.92,ENE,68,2.2,2.2,79,0.00,,,0.00,WUHU216HW,2013-02-05 11:13:00,
2013-02-05 03:18:00,34.2,28.0,29.92,ENE,68,0.0,2.5,78,0.00,,,0.00,WUHU216HW,2013-02-05 11:18:00,
2013-02-05 03:23:00,34.2,27.6,29.92,ENE,68,1.3,2.5,77,0.00,,,0.00,WUHU216HW,2013-02-05 11:23:00,
2013-02-05 03:28:00,34.2,27.6,29.92,ENE,68,0.4,1.6,77,0.00,,,0.00,WUHU216HW,2013-02-05 11:28:00,
2013-02-05 03:33:00,34.0,27.5,29.92,ENE,68,0.4,1.6,77,0.00,,,0.00,WUHU216HW,2013-02-05 11:33:00,
2013-02-05 03:38:00,33.7,27.5,29.92,NE,45,0.2,2.7,78,0.00,,,0.00,WUHU216HW,2013-02-05 11:38:00,
2013-02-05 03:43:00,33.8,27.3,29.92,South,180,1.8,2.7,77,0.00,,,0.00,WUHU216HW,2013-02-05 11:43:00,
2013-02-05 03:48:00,33.7,27.5,29.91,ENE,68,2.9,2.9,78,0.00,,,0.00,WUHU216HW,2013-02-05 11:48:00,
2013-02-05 03:53:00,33.1,27.3,29.92,WNW,293,1.1,2.9,79,0.00,,,0.00,WUHU216HW,2013-02-05 11:53:00,
2013-02-05 03:58:00,32.9,27.5,29.91,East,90,0.2,3.1,80,0.00,,,0.00,WUHU216HW,2013-02-05 11:58:00,
2013-02-05 04:03:00,33.1,27.3,29.91,South,180,1.1,3.1,79,0.00,,,0.00,WUHU216HW,2013-02-05 12:03:00,
2013-02-05 04:08:00,32.9,27.5,29.91,SSW,203,1.8,2.2,80,0.00,,,0.00,WUHU216HW,2013-02-05 12:08:00,
2013-02-05 04:13:00,32.6,27.1,29.91,SSW,203,0.9,2.2,80,0.00,,,0.00,WUHU216HW,2013-02-05 12:13:00,
2013-02-05 04:18:00,32.4,27.0,29.90,WNW,293,1.6,1.6,80,0.00,,,0.00,WUHU216HW,2013-02-05 12:18:00,
2013-02-05 04:23:00,32.2,26.8,29.91,SW,225,0.7,1.6,80,0.00,,,0.00,WUHU216HW,2013-02-05 12:23:00,
2013-02-05 04:28:00,32.0,26.9,29.91,SW,225,0.7,1.6,81,0.00,,,0.00,WUHU216HW,2013-02-05 12:28:00,
2013-02-05 04:33:00,31.9,26.7,29.91,ENE,68,0.0,3.6,81,0.00,,,0.00,WUHU216HW,2013-02-05 12:33:00,
2013-02-05 04:38:00,31.9,26.7,29.91,NE,45,1.6,3.6,81,0.00,,,0.00,WUHU216HW,2013-02-05 12:38:00,
2013-02-05 04:43:00,32.0,26.9,29.91,East,90,1.6,2.0,81,0.00,,,0.00,WUHU216HW,2013-02-05 12:43:00,
2013-02-05 04:47:00,32.2,26.8,29.91,East,90,0.7,2.0,80,0.00,,,0.00,WUHU216HW,2013-02-05 12:47:00,
2013-02-05 04:52:00,32.9,26.8,29.91,East,90,0.9,1.6,78,0.00,,,0.00,WUHU216HW,2013-02-05 12:52:00,
2013-02-05 04:57:00,33.5,27.0,29.91,East,90,1.1,1.8,77,0.00,,,0.00,WUHU216HW,2013-02-05 12:57:00,
2013-02-05 05:02:00,33.7,26.8,29.91,NE,45,2.2,2.2,76,0.00,,,0.00,WUHU216HW,2013-02-05 13:02:00,
2013-02-05 05:07:00,34.0,26.8,29.90,ENE,68,3.1,3.1,75,0.00,,,0.00,WUHU216HW,2013-02-05 13:07:00,
2013-02-05 05:12:00,34.2,27.0,29.91,NW,315,2.9,3.1,75,0.00,,,0.00,WUHU216HW,2013-02-05 13:12:00,
2013-02-05 05:17:00,33.5,26.6,29.91,ENE,68,2.7,3.4,76,0.00,,,0.00,WUHU216HW,2013-02-05 13:17:00,
2013-02-05 05:22:00,33.1,26.6,29.91,WNW,293,1.8,3.6,77,0.00,,,0.00,WUHU216HW,2013-02-05 13:22:00,
2013-02-05 05:27:00,32.8,26.6,29.90,NNE,23,3.4,3.6,78,0.00,,,0.00,WUHU216HW,2013-02-05 13:27:00,
2013-02-05 05:32:00,32.6,26.5,29.90,NE,45,1.8,3.4,78,0.00,,,0.00,WUHU216HW,2013-02-05 13:32:00,
2013-02-05 05:38:00,33.1,26.6,29.90,East,90,1.8,1.8,77,0.00,,,0.00,WUHU216HW,2013-02-05 13:38:00,
2013-02-05 05:43:00,34.2,27.0,29.90,WNW,293,0.4,3.4,75,0.00,,,0.00,WUHU216HW,2013-02-05 13:43:00,
2013-02-05 05:48:00,34.2,26.6,29.90,ESE,113,0.4,3.4,74,0.00,,,0.00,WUHU216HW,2013-02-05 13:48:00,
2013-02-05 05:53:00,34.7,26.9,29.90,East,90,3.1,3.4,73,0.00,,,0.00,WUHU216HW,2013-02-05 13:53:00,
2013-02-05 05:58:00,35.5,27.6,29.90,East,90,0.7,3.1,73,0.00,,,0.00,WUHU216HW,2013-02-05 13:58:00,
2013-02-05 06:05:00,35.1,26.9,29.90,South,180,1.8,2.5,72,0.00,,,0.00,WUHU216HW,2013-02-05 14:05:00,
2013-02-05 06:17:00,34.6,27.0,29.90,SSE,158,1.6,2.2,74,0.00,,,0.00,WUHU216HW,2013-02-05 14:17:00,
2013-02-05 06:24:00,33.7,26.8,29.90,East,90,0.4,1.6,76,0.00,,,0.00,WUHU216HW,2013-02-05 14:24:00,
2013-02-05 06:29:00,33.7,27.1,29.90,East,90,1.1,1.6,77,0.00,,,0.00,WUHU216HW,2013-02-05 14:29:00,
2013-02-05 06:34:00,33.8,27.3,29.90,NW,315,3.8,3.8,77,0.00,,,0.00,WUHU216HW,2013-02-05 14:34:00,
2013-02-05 06:39:00,33.8,27.0,29.91,WNW,293,0.4,3.8,76,0.00,,,0.00,WUHU216HW,2013-02-05 14:39:00,
2013-02-05 06:44:00,33.8,27.0,29.90,NNE,23,2.9,2.9,76,0.00,,,0.00,WUHU216HW,2013-02-05 14:44:00,
2013-02-05 06:49:00,34.0,26.8,29.90,SSE,158,1.1,2.9,75,0.00,,,0.00,WUHU216HW,2013-02-05 14:49:00,
2013-02-05 06:54:00,34.2,26.6,29.90,SSW,203,1.8,2.5,74,0.00,,,0.00,WUHU216HW,2013-02-05 14:54:00,
2013-02-05 06:59:00,34.2,26.6,29.90,North,0,2.5,3.1,74,0.00,,,0.00,WUHU216HW,2013-02-05 14:59:00,
2013-02-05 07:04:00,33.8,26.6,29.90,SW,225,0.4,3.6,75,0.00,,,0.00,WUHU216HW,2013-02-05 15:04:00,
2013-02-05 07:09:00,33.7,26.8,29.90,NNE,23,3.1,4.0,76,0.00,,,0.00,WUHU216HW,2013-02-05 15:09:00,
2013-02-05 07:14:00,33.7,26.5,29.90,East,90,0.2,4.0,75,0.00,,,0.00,WUHU216HW,2013-02-05 15:14:00,
2013-02-05 07:19:00,33.5,26.6,29.90,North,0,1.1,2.9,76,0.00,,,0.00,WUHU216HW,2013-02-05 15:19:00,
2013-02-05 07:24:00,33.1,26.0,29.90,ENE,68,5.1,5.1,75,0.00,,,0.00,WUHU216HW,2013-02-05 15:24:00,
2013-02-05 07:29:00,33.5,26.3,29.90,WNW,293,1.8,5.1,75,0.00,,,0.00,WUHU216HW,2013-02-05 15:29:00,
2013-02-05 07:34:00,33.1,26.3,29.90,ENE,68,1.8,2.7,76,0.00,,,0.00,WUHU216HW,2013-02-05 15:34:00,
2013-02-05 07:39:00,32.9,26.2,29.90,NW,315,0.4,2.5,76,0.00,,,0.00,WUHU216HW,2013-02-05 15:39:00,
2013-02-05 07:44:00,32.9,26.2,29.90,ENE,68,1.3,1.8,76,0.00,,,0.00,WUHU216HW,2013-02-05 15:44:00,
2013-02-05 07:49:00,32.9,26.2,29.91,East,90,1.8,1.8,76,0.00,,,0.00,WUHU216HW,2013-02-05 15:49:00,
2013-02-05 07:54:00,33.3,26.2,29.91,East,90,1.3,2.2,75,0.00,,,0.00,WUHU216HW,2013-02-05 15:54:00,
2013-02-05 07:59:00,33.5,26.3,29.91,North,0,1.1,2.2,75,0.00,,,0.00,WUHU216HW,2013-02-05 15:59:00,
2013-02-05 08:04:00,33.7,26.5,29.91,ENE,68,0.7,1.8,75,0.00,,,0.00,WUHU216HW,2013-02-05 16:04:00,
2013-02-05 08:09:00,34.0,26.8,29.92,ENE,68,0.4,1.8,75,0.00,,,0.00,WUHU216HW,2013-02-05 16:09:00,
2013-02-05 08:14:00,34.4,26.8,29.92,ENE,68,0.7,1.8,74,0.00,,,0.00,WUHU216HW,2013-02-05 16:14:00,
2013-02-05 08:19:00,35.3,27.1,29.92,NE,45,0.9,1.8,72,0.00,,,0.00,WUHU216HW,2013-02-05 16:19:00,
2013-02-05 08:24:00,35.8,27.4,29.93,NE,45,0.4,1.6,71,0.00,,,0.00,WUHU216HW,2013-02-05 16:24:00,
2013-02-05 08:29:00,36.0,27.8,29.93,ENE,68,0.2,2.9,72,0.00,,,0.00,WUHU216HW,2013-02-05 16:29:00,
2013-02-05 08:34:00,36.2,27.7,29.93,WSW,248,1.1,2.9,71,0.00,,,0.00,WUHU216HW,2013-02-05 16:34:00,
2013-02-05 08:39:00,36.4,27.9,29.93,ESE,113,0.7,2.5,71,0.00,,,0.00,WUHU216HW,2013-02-05 16:39:00,
2013-02-05 08:44:00,36.4,27.5,29.93,NNE,23,2.0,2.5,70,0.00,,,0.00,WUHU216HW,2013-02-05 16:44:00,
2013-02-05 08:49:00,37.1,27.9,29.94,SSE,158,0.7,2.0,69,0.00,,,0.00,WUHU216HW,2013-02-05 16:49:00,
2013-02-05 08:54:00,37.6,29.1,29.94,SW,225,0.9,1.8,71,0.00,,,0.00,WUHU216HW,2013-02-05 16:54:00,
2013-02-05 08:59:00,38.2,29.6,29.94,SW,225,0.4,1.6,71,0.00,,,0.00,WUHU216HW,2013-02-05 16:59:00,
2013-02-05 09:04:00,38.9,30.6,29.94,WNW,293,2.9,2.9,72,0.00,,,0.00,WUHU216HW,2013-02-05 17:04:00,
2013-02-05 09:09:00,39.6,31.3,29.94,NW,315,1.3,6.3,72,0.00,,,0.00,WUHU216HW,2013-02-05 17:09:00,
2013-02-05 09:14:00,40.1,32.1,29.94,SW,225,5.6,6.3,73,0.00,,,0.00,WUHU216HW,2013-02-05 17:14:00,
2013-02-05 09:19:00,40.9,32.5,29.94,WNW,293,4.3,5.6,72,0.00,,,0.00,WUHU216HW,2013-02-05 17:19:00,
2013-02-05 09:24:00,41.4,33.0,29.94,WSW,248,8.1,8.1,72,0.00,,,0.00,WUHU216HW,2013-02-05 17:24:00,
2013-02-05 09:29:00,41.8,33.1,29.94,WNW,293,6.0,8.1,71,0.00,,,0.00,WUHU216HW,2013-02-05 17:29:00,
2013-02-05 09:34:00,41.9,33.3,29.94,WNW,293,4.9,7.2,71,0.00,,,0.00,WUHU216HW,2013-02-05 17:34:00,
2013-02-05 09:39:00,42.1,33.5,29.94,West,270,4.0,8.3,71,0.00,,,0.00,WUHU216HW,2013-02-05 17:39:00,
2013-02-05 09:44:00,42.7,34.0,29.94,WNW,293,6.5,8.3,71,0.00,,,0.00,WUHU216HW,2013-02-05 17:44:00,
2013-02-05 09:49:00,43.4,34.7,29.94,WNW,293,4.3,6.9,71,0.00,,,0.00,WUHU216HW,2013-02-05 17:49:00,
2013-02-05 09:54:00,43.6,34.5,29.94,WNW,293,7.2,8.9,70,0.00,,,0.00,WUHU216HW,2013-02-05 17:54:00,
2013-02-05 09:59:00,43.7,33.8,29.94,SW,225,5.1,9.8,68,0.00,,,0.00,WUHU216HW,2013-02-05 17:59:00,
2013-02-05 10:04:00,43.9,34.0,29.94,WNW,293,9.8,9.8,68,0.00,,,0.00,WUHU216HW,2013-02-05 18:04:00,
2013-02-05 10:09:00,43.9,34.0,29.94,WSW,248,6.0,11.0,68,0.00,,,0.00,WUHU216HW,2013-02-05 18:09:00,
2013-02-05 10:14:00,44.3,34.4,29.94,NW,315,7.4,11.0,68,0.00,,,0.00,WUHU216HW,2013-02-05 18:14:00,
2013-02-05 10:19:00,44.3,34.0,29.95,WNW,293,6.9,10.5,67,0.00,,,0.00,WUHU216HW,2013-02-05 18:19:00,
2013-02-05 10:24:00,44.3,34.0,29.94,NNW,338,9.2,10.7,67,0.00,,,0.00,WUHU216HW,2013-02-05 18:24:00,
2013-02-05 10:29:00,44.3,34.4,29.94,SW,225,5.4,10.7,68,0.00,,,0.00,WUHU216HW,2013-02-05 18:29:00,
2013-02-05 10:34:00,44.3,34.4,29.94,SW,225,6.9,10.3,68,0.00,,,0.00,WUHU216HW,2013-02-05 18:34:00,
2013-02-05 10:39:00,44.1,34.2,29.94,SW,225,4.0,10.3,68,0.00,,,0.00,WUHU216HW,2013-02-05 18:39:00,
2013-02-05 10:44:00,43.9,34.0,29.94,WSW,248,6.9,10.1,68,0.00,,,0.00,WUHU216HW,2013-02-05 18:44:00,
2013-02-05 10:49:00,44.3,34.7,29.94,WSW,248,6.3,10.1,69,0.00,,,0.00,WUHU216HW,2013-02-05 18:49:00,
2013-02-05 10:54:00,44.1,34.2,29.94,SW,225,3.8,6.9,68,0.00,,,0.00,WUHU216HW,2013-02-05 18:54:00,
2013-02-05 10:59:00,44.3,34.4,29.94,WSW,248,7.4,7.4,68,0.00,,,0.00,WUHU216HW,2013-02-05 18:59:00,
2013-02-05 11:04:00,44.6,34.8,29.94,SSW,203,6.3,7.4,68,0.00,,,0.00,WUHU216HW,2013-02-05 19:04:00,
2013-02-05 11:09:00,45.9,34.7,29.94,SSW,203,9.8,9.8,65,0.00,,,0.00,WUHU216HW,2013-02-05 19:09:00,
2013-02-05 11:14:00,46.3,33.6,29.94,SSW,203,7.2,12.8,61,0.00,,,0.00,WUHU216HW,2013-02-05 19:14:00,
2013-02-05 11:19:00,46.6,33.8,29.94,WSW,248,8.9,12.8,61,0.00,,,0.00,WUHU216HW,2013-02-05 19:19:00,
2013-02-05 11:24:00,47.2,34.4,29.95,SW,225,6.3,9.2,61,0.00,,,0.00,WUHU216HW,2013-02-05 19:24:00,
2013-02-05 11:29:00,47.3,34.2,29.95,SSW,203,7.6,8.7,60,0.00,,,0.00,WUHU216HW,2013-02-05 19:29:00,
2013-02-05 11:34:00,47.7,34.1,29.95,WSW,248,9.2,10.1,59,0.00,,,0.00,WUHU216HW,2013-02-05 19:34:00,
2013-02-05 11:39:00,47.9,33.9,29.95,WSW,248,7.6,10.1,58,0.00,,,0.00,WUHU216HW,2013-02-05 19:39:00,
2013-02-05 11:44:00,46.4,34.1,29.94,SSW,203,14.3,14.3,62,0.00,,,0.00,WUHU216HW,2013-02-05 19:44:00,
2013-02-05 11:49:00,46.1,33.4,29.94,WSW,248,10.5,14.3,61,0.00,,,0.00,WUHU216HW,2013-02-05 19:49:00,
2013-02-05 11:54:00,46.1,32.5,29.94,SW,225,11.0,14.3,59,0.00,,,0.00,WUHU216HW,2013-02-05 19:54:00,
2013-02-05 11:59:00,46.1,32.5,29.94,WSW,248,5.1,14.1,59,0.00,,,0.00,WUHU216HW,2013-02-05 19:59:00,
2013-02-05 12:04:00,45.9,32.0,29.94,SW,225,10.1,14.1,58,0.00,,,0.00,WUHU216HW,2013-02-05 20:04:00,
2013-02-05 12:09:00,45.5,32.0,29.94,SW,225,6.7,12.5,59,0.00,,,0.00,WUHU216HW,2013-02-05 20:09:00,
2013-02-05 12:14:00,45.5,32.0,29.94,WSW,248,9.2,10.3,59,0.00,,,0.00,WUHU216HW,2013-02-05 20:14:00,
2013-02-05 12:19:00,46.4,33.3,29.94,SSW,203,4.0,13.2,60,0.00,,,0.00,WUHU216HW,2013-02-05 20:19:00,
2013-02-05 12:24:00,46.6,33.0,29.94,SSW,203,9.2,13.2,59,0.00,,,0.00,WUHU216HW,2013-02-05 20:24:00,
2013-02-05 12:29:00,47.3,33.3,29.94,SW,225,9.8,12.1,58,0.00,,,0.00,WUHU216HW,2013-02-05 20:29:00,
2013-02-05 12:34:00,47.2,32.7,29.94,WSW,248,8.3,16.3,57,0.00,,,0.00,WUHU216HW,2013-02-05 20:34:00,
2013-02-05 12:39:00,47.5,33.0,29.94,SW,225,11.4,16.3,57,0.00,,,0.00,WUHU216HW,2013-02-05 20:39:00,
2013-02-05 12:44:00,48.2,32.8,29.94,SSW,203,9.2,12.1,55,0.00,,,0.00,WUHU216HW,2013-02-05 20:44:00,
2013-02-05 12:49:00,48.6,32.1,29.94,West,270,12.3,12.3,53,0.00,,,0.00,WUHU216HW,2013-02-05 20:49:00,
2013-02-05 12:54:00,48.1,32.1,29.94,West,270,13.2,16.3,54,0.00,,,0.00,WUHU216HW,2013-02-05 20:54:00,
2013-02-05 12:59:00,47.3,31.9,29.94,SW,225,12.1,16.3,55,0.00,,,0.00,WUHU216HW,2013-02-05 20:59:00,
2013-02-05 13:03:00,47.3,32.4,29.94,WSW,248,8.5,13.9,56,0.00,,,0.00,WUHU216HW,2013-02-05 21:03:00,
2013-02-05 13:08:00,47.9,32.0,29.94,SW,225,10.3,10.3,54,0.00,,,0.00,WUHU216HW,2013-02-05 21:08:00,
2013-02-05 13:13:00,47.9,31.5,29.94,SW,225,9.2,13.4,53,0.00,,,0.00,WUHU216HW,2013-02-05 21:13:00,
2013-02-05 13:18:00,47.9,31.1,29.94,SW,225,3.8,13.4,52,0.00,,,0.00,WUHU216HW,2013-02-05 21:18:00,
2013-02-05 13:23:00,47.9,30.6,29.94,SSE,158,11.0,14.3,51,0.00,,,0.00,WUHU216HW,2013-02-05 21:23:00,
2013-02-05 13:28:00,47.7,28.9,29.94,South,180,7.6,14.3,48,0.00,,,0.00,WUHU216HW,2013-02-05 21:28:00,
2013-02-05 13:33:00,47.9,28.4,29.94,WSW,248,13.4,13.4,47,0.00,,,0.00,WUHU216HW,2013-02-05 21:33:00,
2013-02-05 13:38:00,47.9,28.4,29.94,WSW,248,10.1,13.4,47,0.00,,,0.00,WUHU216HW,2013-02-05 21:38:00,
2013-02-05 13:43:00,47.2,28.4,29.94,SW,225,12.3,18.1,48,0.00,,,0.00,WUHU216HW,2013-02-05 21:43:00,
2013-02-05 13:48:00,47.0,28.7,29.94,WSW,248,9.2,18.1,49,0.00,,,0.00,WUHU216HW,2013-02-05 21:48:00,
2013-02-05 13:53:00,47.2,28.9,29.94,South,180,6.9,14.3,49,0.00,,,0.00,WUHU216HW,2013-02-05 21:53:00,
2013-02-05 13:58:00,47.2,29.9,29.94,WSW,248,8.7,14.3,51,0.00,,,0.00,WUHU216HW,2013-02-05 21:58:00,
2013-02-05 14:03:00,47.2,29.9,29.94,WSW,248,8.3,16.8,51,0.00,,,0.00,WUHU216HW,2013-02-05 22:03:00,
2013-02-05 14:08:00,47.5,30.7,29.94,West,270,9.4,16.8,52,0.00,,,0.00,WUHU216HW,2013-02-05 22:08:00,
2013-02-05 14:13:00,47.5,30.3,29.94,WSW,248,8.5,12.1,51,0.00,,,0.00,WUHU216HW,2013-02-05 22:13:00,
2013-02-05 14:18:00,47.9,30.1,29.93,South,180,3.4,8.5,50,0.00,,,0.00,WUHU216HW,2013-02-05 22:18:00,
2013-02-05 14:23:00,47.9,30.6,29.94,SW,225,10.3,10.3,51,0.00,,,0.00,WUHU216HW,2013-02-05 22:23:00,
2013-02-05 14:28:00,48.1,30.7,29.93,West,270,6.9,10.3,51,0.00,,,0.00,WUHU216HW,2013-02-05 22:28:00,
2013-02-05 14:33:00,48.2,30.9,29.93,SW,225,4.5,10.3,51,0.00,,,0.00,WUHU216HW,2013-02-05 22:33:00,
2013-02-05 14:38:00,48.6,30.8,29.94,SSW,203,7.4,7.4,50,0.00,,,0.00,WUHU216HW,2013-02-05 22:38:00,
2013-02-05 14:43:00,49.0,30.1,29.94,WSW,248,1.8,7.4,48,0.00,,,0.00,WUHU216HW,2013-02-05 22:43:00,
2013-02-05 14:48:00,48.6,30.3,29.94,West,270,5.8,7.4,49,0.00,,,0.00,WUHU216HW,2013-02-05 22:48:00,
2013-02-05 14:53:00,47.7,30.4,29.93,SW,225,8.3,8.3,51,0.00,,,0.00,WUHU216HW,2013-02-05 22:53:00,
2013-02-05 14:58:00,47.9,30.1,29.94,WSW,248,8.5,13.6,50,0.00,,,0.00,WUHU216HW,2013-02-05 22:58:00,
2013-02-05 15:03:00,48.2,30.9,29.94,West,270,4.7,13.6,51,0.00,,,0.00,WUHU216HW,2013-02-05 23:03:00,
2013-02-05 15:08:00,48.4,30.1,29.94,SW,225,6.9,9.2,49,0.00,,,0.00,WUHU216HW,2013-02-05 23:08:00,
2013-02-05 15:13:00,48.2,30.4,29.94,SW,225,11.4,11.4,50,0.00,,,0.00,WUHU216HW,2013-02-05 23:13:00,
2013-02-05 15:18:00,47.7,30.0,29.94,WSW,248,13.2,13.2,50,0.00,,,0.00,WUHU216HW,2013-02-05 23:18:00,
2013-02-05 15:23:00,47.9,31.1,29.94,West,270,5.4,13.2,52,0.00,,,0.00,WUHU216HW,2013-02-05 23:23:00,
2013-02-05 15:28:00,48.1,30.2,29.95,SW,225,8.3,12.8,50,0.00,,,0.00,WUHU216HW,2013-02-05 23:28:00,
2013-02-05 15:33:00,47.7,29.4,29.94,NW,315,14.3,14.3,49,0.00,,,0.00,WUHU216HW,2013-02-05 23:33:00,
2013-02-05 15:38:00,47.2,29.9,29.95,WSW,248,12.1,14.3,51,0.00,,,0.00,WUHU216HW,2013-02-05 23:38:00,
2013-02-05 15:43:00,47.2,29.9,29.95,WSW,248,7.6,13.0,51,0.00,,,0.00,WUHU216HW,2013-02-05 23:43:00,
2013-02-05 15:48:00,47.5,30.3,29.95,SW,225,9.2,13.0,51,0.00,,,0.00,WUHU216HW,2013-02-05 23:48:00,
2013-02-05 15:53:00,47.5,30.3,29.95,West,270,7.6,9.2,51,0.00,,,0.00,WUHU216HW,2013-02-05 23:53:00,
2013-02-05 15:58:00,47.2,29.4,29.95,SSW,203,9.2,14.3,50,0.00,,,0.00,WUHU216HW,2013-02-05 23:58:00,
2013-02-05 16:03:00,47.2,30.3,29.95,SSW,203,8.1,14.3,52,0.00,,,0.00,WUHU216HW,2013-02-06 00:03:00,
2013-02-05 16:08:00,46.4,31.1,29.96,WSW,248,5.1,11.4,55,0.00,,,0.00,WUHU216HW,2013-02-06 00:08:00,
2013-02-05 16:13:00,45.5,31.1,29.96,SW,225,5.1,11.4,57,0.00,,,0.00,WUHU216HW,2013-02-06 00:13:00,
2013-02-05 16:18:00,45.4,31.4,29.96,SW,225,6.3,9.2,58,0.00,,,0.00,WUHU216HW,2013-02-06 00:18:00,
2013-02-05 16:23:00,45.2,31.7,29.96,WSW,248,3.4,6.3,59,0.00,,,0.00,WUHU216HW,2013-02-06 00:23:00,
2013-02-05 16:28:00,45.0,32.1,29.96,SSW,203,4.5,4.7,60,0.00,,,0.00,WUHU216HW,2013-02-06 00:28:00,
2013-02-05 16:33:00,44.3,32.0,29.96,SSW,203,2.9,4.7,62,0.00,,,0.00,WUHU216HW,2013-02-06 00:33:00,
2013-02-05 16:38:00,44.1,32.0,29.96,SSW,203,3.6,4.7,62,0.00,,,0.00,WUHU216HW,2013-02-06 00:38:00,
2013-02-05 16:43:00,44.3,31.7,29.97,SSW,203,6.3,6.3,61,0.00,,,0.00,WUHU216HW,2013-02-06 00:43:00,
2013-02-05 16:48:00,44.1,32.0,29.97,SW,225,5.6,6.3,62,0.00,,,0.00,WUHU216HW,2013-02-06 00:48:00,
2013-02-05 16:53:00,43.6,31.0,29.97,WSW,248,9.6,10.3,61,0.00,,,0.00,WUHU216HW,2013-02-06 00:53:00,
2013-02-05 16:58:00,43.2,31.1,29.97,SW,225,6.9,10.3,62,0.00,,,0.00,WUHU216HW,2013-02-06 00:58:00,
2013-02-05 17:03:00,42.5,30.7,29.97,SW,225,5.1,9.6,63,0.00,,,0.00,WUHU216HW,2013-02-06 01:03:00,
2013-02-05 17:08:00,41.8,30.4,29.97,WSW,248,3.1,6.7,64,0.00,,,0.00,WUHU216HW,2013-02-06 01:08:00,
2013-02-05 17:13:00,41.4,30.2,29.97,WSW,248,4.5,4.7,64,0.00,,,0.00,WUHU216HW,2013-02-06 01:13:00,
2013-02-05 17:18:00,41.2,30.0,29.97,SW,225,7.2,7.2,64,0.00,,,0.00,WUHU216HW,2013-02-06 01:18:00,
2013-02-05 17:23:00,40.9,29.3,29.97,WSW,248,6.3,7.2,63,0.00,,,0.00,WUHU216HW,2013-02-06 01:23:00,
2013-02-05 17:28:00,40.7,29.1,29.97,SW,225,3.8,8.5,63,0.00,,,0.00,WUHU216HW,2013-02-06 01:28:00,
2013-02-05 17:33:00,40.7,29.1,29.97,SW,225,4.9,10.5,63,0.00,,,0.00,WUHU216HW,2013-02-06 01:33:00,
2013-02-05 17:38:00,40.3,29.1,29.97,SW,225,3.4,10.5,64,0.00,,,0.00,WUHU216HW,2013-02-06 01:38:00,
2013-02-05 17:43:00,40.1,28.9,29.97,West,270,4.0,8.3,64,0.00,,,0.00,WUHU216HW,2013-02-06 01:43:00,
2013-02-05 17:48:00,40.1,29.3,29.98,West,270,8.3,8.5,65,0.00,,,0.00,WUHU216HW,2013-02-06 01:48:00,
2013-02-05 17:53:00,40.3,29.4,29.98,SW,225,8.5,8.5,65,0.00,,,0.00,WUHU216HW,2013-02-06 01:53:00,
2013-02-05 17:58:00,40.3,29.4,29.98,WSW,248,4.0,9.4,65,0.00,,,0.00,WUHU216HW,2013-02-06 01:58:00,
2013-02-05 18:03:00,40.1,29.3,29.98,WSW,248,3.4,9.4,65,0.00,,,0.00,WUHU216HW,2013-02-06 02:03:00,
2013-02-05 18:08:00,40.0,29.1,29.98,WSW,248,2.7,7.2,65,0.00,,,0.00,WUHU216HW,2013-02-06 02:08:00,
2013-02-05 18:13:00,39.8,28.9,29.98,SW,225,9.2,9.2,65,0.00,,,0.00,WUHU216HW,2013-02-06 02:13:00,
2013-02-05 18:18:00,39.6,28.7,29.98,SW,225,10.7,10.7,65,0.00,,,0.00,WUHU216HW,2013-02-06 02:18:00,
2013-02-05 18:23:00,39.6,28.4,29.97,SW,225,9.8,10.7,64,0.00,,,0.00,WUHU216HW,2013-02-06 02:23:00,
2013-02-05 18:28:00,39.6,28.4,29.97,SW,225,10.7,13.0,64,0.00,,,0.00,WUHU216HW,2013-02-06 02:28:00,
2013-02-05 18:33:00,39.6,28.4,29.96,SW,225,5.4,13.0,64,0.00,,,0.00,WUHU216HW,2013-02-06 02:33:00,
2013-02-05 18:38:00,39.6,28.4,29.96,SSW,203,5.8,11.4,64,0.00,,,0.00,WUHU216HW,2013-02-06 02:38:00,
2013-02-05 18:43:00,39.4,28.2,29.97,SSW,203,4.5,9.4,64,0.00,,,0.00,WUHU216HW,2013-02-06 02:43:00,
2013-02-05 18:48:00,39.2,28.4,29.97,SSW,203,8.5,9.4,65,0.00,,,0.00,WUHU216HW,2013-02-06 02:48:00,
2013-02-05 18:53:00,39.2,28.4,29.97,SW,225,6.9,8.5,65,0.00,,,0.00,WUHU216HW,2013-02-06 02:53:00,
2013-02-05 18:58:00,39.1,28.2,29.97,SSW,203,4.3,6.9,65,0.00,,,0.00,WUHU216HW,2013-02-06 02:58:00,
2013-02-05 19:03:00,39.1,27.8,29.97,South,180,3.6,6.9,64,0.00,,,0.00,WUHU216HW,2013-02-06 03:03:00,
2013-02-05 19:08:00,38.9,27.6,29.98,SE,135,0.4,3.6,64,0.00,,,0.00,WUHU216HW,2013-02-06 03:08:00,
2013-02-05 19:13:00,38.5,27.4,29.98,SSE,158,2.7,3.6,64,0.00,,,0.00,WUHU216HW,2013-02-06 03:13:00,
2013-02-05 19:18:00,38.0,27.6,29.98,ESE,113,1.8,2.9,66,0.00,,,0.00,WUHU216HW,2013-02-06 03:18:00,
2013-02-05 19:23:00,37.6,27.3,29.98,SE,135,3.1,3.1,66,0.00,,,0.00,WUHU216HW,2013-02-06 03:23:00,
2013-02-05 19:28:00,37.4,27.5,29.98,SE,135,1.1,3.1,67,0.00,,,0.00,WUHU216HW,2013-02-06 03:28:00,
2013-02-05 19:33:00,37.4,27.1,29.98,South,180,2.0,3.1,66,0.00,,,0.00,WUHU216HW,2013-02-06 03:33:00,
2013-02-05 19:38:00,37.3,26.9,29.98,SSE,158,1.1,2.7,66,0.00,,,0.00,WUHU216HW,2013-02-06 03:38:00,
2013-02-05 19:43:00,37.3,26.9,29.98,SSW,203,2.9,2.9,66,0.00,,,0.00,WUHU216HW,2013-02-06 03:43:00,
2013-02-05 19:48:00,37.3,26.9,29.99,SSW,203,2.5,3.4,66,0.00,,,0.00,WUHU216HW,2013-02-06 03:48:00,
2013-02-05 19:53:00,37.3,26.9,29.98,SSW,203,0.9,3.4,66,0.00,,,0.00,WUHU216HW,2013-02-06 03:53:00,
2013-02-05 19:58:00,37.3,26.9,29.98,SW,225,2.9,2.9,66,0.00,,,0.00,WUHU216HW,2013-02-06 03:58:00,
2013-02-05 20:03:00,37.1,27.2,29.98,SW,225,3.4,3.4,67,0.00,,,0.00,WUHU216HW,2013-02-06 04:03:00,
2013-02-05 20:08:00,37.1,27.2,29.98,SSW,203,3.4,3.6,67,0.00,,,0.00,WUHU216HW,2013-02-06 04:08:00,
2013-02-05 20:13:00,37.1,27.2,29.98,South,180,3.6,3.6,67,0.00,,,0.00,WUHU216HW,2013-02-06 04:13:00,
2013-02-05 20:18:00,37.1,27.2,29.98,SSW,203,2.2,5.4,67,0.00,,,0.00,WUHU216HW,2013-02-06 04:18:00,
2013-02-05 20:23:00,37.1,27.2,29.98,SW,225,4.0,5.4,67,0.00,,,0.00,WUHU216HW,2013-02-06 04:23:00,
2013-02-05 20:28:00,37.4,27.5,29.99,SE,135,3.4,4.0,67,0.00,,,0.00,WUHU216HW,2013-02-06 04:28:00,
2013-02-05 20:33:00,37.4,27.1,29.99,SE,135,0.2,4.0,66,0.00,,,0.00,WUHU216HW,2013-02-06 04:33:00,
2013-02-05 20:38:00,37.4,27.1,29.99,ESE,113,1.1,4.0,66,0.00,,,0.00,WUHU216HW,2013-02-06 04:38:00,
2013-02-05 20:43:00,37.3,26.9,30.00,ESE,113,1.3,1.3,66,0.00,,,0.00,WUHU216HW,2013-02-06 04:43:00,
2013-02-05 20:48:00,36.9,27.0,30.01,SE,135,1.6,1.6,67,0.00,,,0.00,WUHU216HW,2013-02-06 04:48:00,
2013-02-05 20:53:00,36.7,27.2,30.01,East,90,0.9,2.5,68,0.00,,,0.00,WUHU216HW,2013-02-06 04:53:00,
2013-02-05 20:58:00,36.7,27.2,30.01,East,90,0.0,2.5,68,0.00,,,0.00,WUHU216HW,2013-02-06 04:58:00,
2013-02-05 21:03:00,36.4,26.8,30.01,East,90,0.7,1.1,68,0.00,,,0.00,WUHU216HW,2013-02-06 05:03:00,
2013-02-05 21:08:00,36.4,27.5,30.01,SSW,203,2.5,2.5,70,0.00,,,0.00,WUHU216HW,2013-02-06 05:08:00,
2013-02-05 21:13:00,36.9,28.1,30.01,SW,225,4.7,4.7,70,0.00,,,0.00,WUHU216HW,2013-02-06 05:13:00,
2013-02-05 21:18:00,37.1,27.9,30.01,SW,225,1.6,4.7,69,0.00,,,0.00,WUHU216HW,2013-02-06 05:18:00,
2013-02-05 21:23:00,37.1,28.3,30.02,SSW,203,4.9,4.9,70,0.00,,,0.00,WUHU216HW,2013-02-06 05:23:00,
2013-02-05 21:28:00,38.2,29.3,30.02,SW,225,6.0,9.2,70,0.00,,,0.00,WUHU216HW,2013-02-06 05:28:00,
2013-02-05 21:33:00,38.3,29.4,30.02,South,180,5.4,9.2,70,0.00,,,0.00,WUHU216HW,2013-02-06 05:33:00,
2013-02-05 21:38:00,38.2,29.3,30.02,WSW,248,4.0,7.4,70,0.00,,,0.00,WUHU216HW,2013-02-06 05:38:00,
2013-02-05 21:43:00,38.0,28.7,30.02,SSW,203,7.8,7.8,69,0.00,,,0.00,WUHU216HW,2013-02-06 05:43:00,
2013-02-05 21:48:00,38.3,28.7,30.02,SW,225,9.4,9.4,68,0.00,,,0.00,WUHU216HW,2013-02-06 05:48:00,
2013-02-05 21:53:00,38.5,28.4,30.02,SW,225,5.8,11.0,67,0.00,,,0.00,WUHU216HW,2013-02-06 05:53:00,
2013-02-05 21:58:00,38.3,28.7,30.02,SW,225,10.5,11.0,68,0.00,,,0.00,WUHU216HW,2013-02-06 05:58:00,
2013-02-05 22:03:00,38.3,28.7,30.02,SW,225,7.2,10.5,68,0.00,,,0.00,WUHU216HW,2013-02-06 06:03:00,
2013-02-05 22:08:00,38.0,28.4,30.02,SW,225,4.7,10.5,68,0.00,,,0.00,WUHU216HW,2013-02-06 06:08:00,
2013-02-05 22:13:00,37.8,28.5,30.02,SW,225,2.5,5.6,69,0.00,,,0.00,WUHU216HW,2013-02-06 06:13:00,
2013-02-05 22:18:00,37.4,28.3,30.02,SW,225,2.2,4.9,69,0.00,,,0.00,WUHU216HW,2013-02-06 06:18:00,
2013-02-05 22:23:00,37.4,28.3,30.02,WSW,248,8.3,8.3,69,0.00,,,0.00,WUHU216HW,2013-02-06 06:23:00,
2013-02-05 22:28:00,37.8,28.2,30.02,SW,225,3.4,8.3,68,0.00,,,0.00,WUHU216HW,2013-02-06 06:28:00,
2013-02-05 22:33:00,37.4,28.3,30.03,SSW,203,2.0,3.8,69,0.00,,,0.00,WUHU216HW,2013-02-06 06:33:00,
2013-02-05 22:38:00,37.3,28.1,30.03,South,180,2.9,5.4,69,0.00,,,0.00,WUHU216HW,2013-02-06 06:38:00,
2013-02-05 22:43:00,37.1,28.3,30.03,SW,225,4.3,6.3,70,0.00,,,0.00,WUHU216HW,2013-02-06 06:43:00,
2013-02-05 22:48:00,37.6,29.1,30.03,SSW,203,12.1,12.1,71,0.00,,,0.00,WUHU216HW,2013-02-06 06:48:00,
2013-02-05 22:53:00,37.8,29.3,30.03,West,270,4.7,12.1,71,0.00,,,0.00,WUHU216HW,2013-02-06 06:53:00,
2013-02-05 22:58:00,37.6,29.1,30.03,SW,225,3.1,5.8,71,0.00,,,0.00,WUHU216HW,2013-02-06 06:58:00,
2013-02-05 23:03:00,37.4,29.3,30.04,SW,225,6.5,8.5,72,0.00,,,0.00,WUHU216HW,2013-02-06 07:03:00,
2013-02-05 23:08:00,37.6,29.1,30.04,WSW,248,3.4,8.5,71,0.00,,,0.00,WUHU216HW,2013-02-06 07:08:00,
2013-02-05 23:13:00,37.4,29.0,30.04,SSW,203,4.7,8.3,71,0.00,,,0.00,WUHU216HW,2013-02-06 07:13:00,
2013-02-05 23:18:00,37.3,28.8,30.04,SSW,203,2.5,5.1,71,0.00,,,0.00,WUHU216HW,2013-02-06 07:18:00,
2013-02-05 23:23:00,37.1,28.6,30.04,SSW,203,1.8,5.1,71,0.00,,,0.00,WUHU216HW,2013-02-06 07:23:00,
2013-02-05 23:28:00,36.7,28.3,30.04,SSW,203,1.6,2.9,71,0.00,,,0.00,WUHU216HW,2013-02-06 07:28:00,
2013-02-05 23:33:00,36.4,27.9,30.03,South,180,3.4,3.4,71,0.00,,,0.00,WUHU216HW,2013-02-06 07:33:00,
2013-02-05 23:38:00,36.0,28.2,30.03,SE,135,1.8,3.4,73,0.00,,,0.00,WUHU216HW,2013-02-06 07:38:00,
2013-02-05 23:43:00,36.4,28.2,30.03,SSW,203,0.2,3.4,72,0.00,,,0.00,WUHU216HW,2013-02-06 07:43:00,
2013-02-05 23:48:00,36.4,27.9,30.03,SSW,203,0.7,3.6,71,0.00,,,0.00,WUHU216HW,2013-02-06 07:48:00,
2013-02-05 23:53:00,36.0,27.8,30.03,SSE,158,2.0,3.6,72,0.00,,,0.00,WUHU216HW,2013-02-06 07:53:00,
2013-02-05 23:58:00,36.2,28.0,30.03,East,90,1.1,4.9,72,0.00,,,0.00,WUHU216HW,2013-02-06 07:58:00,